sensor_id;sensor_type;location;lat;lon;timestamp;pressure;altitude;pressure_sealevel;temperature;humidity
74270;BME280;62754;48.252;11.654;2022-09-03T00:00:13;95895.84;;;13.19;68.02
74270;BME280;62754;48.252;11.654;2022-09-03T00:02:45;95897.06;;;13.24;67.55
74270;BME280;62754;48.252;11.654;2022-09-03T00:10:55;95895.03;;;13.18;67.77
74270;BME280;62754;48.252;11.654;2022-09-03T00:13:56;95894.19;;;13.27;68.03
74270;BME280;62754;48.252;11.654;2022-09-03T00:16:27;95903.84;;;13.25;67.94
74270;BME280;62754;48.252;11.654;2022-09-03T00:19:02;95895.13;;;13.26;67.94
74270;BME280;62754;48.252;11.654;2022-09-03T00:21:41;95896.34;;;13.32;68.36
74270;BME280;62754;48.252;11.654;2022-09-03T00:24:11;95908.50;;;13.22;68.75
74270;BME280;62754;48.252;11.654;2022-09-03T00:26:39;95915.88;;;13.17;68.35
74270;BME280;62754;48.252;11.654;2022-09-03T00:29:12;95912.84;;;13.21;69.20
74270;BME280;62754;48.252;11.654;2022-09-03T00:31:44;95908.78;;;13.19;68.85
74270;BME280;62754;48.252;11.654;2022-09-03T00:34:22;95901.38;;;13.33;68.54
74270;BME280;62754;48.252;11.654;2022-09-03T00:36:49;95901.25;;;13.25;68.70
74270;BME280;62754;48.252;11.654;2022-09-03T00:39:18;95897.78;;;13.07;69.75
74270;BME280;62754;48.252;11.654;2022-09-03T00:44:31;95898.72;;;13.06;69.55
74270;BME280;62754;48.252;11.654;2022-09-03T00:52:34;95900.38;;;13.07;69.38
74270;BME280;62754;48.252;11.654;2022-09-03T00:55:33;95899.28;;;13.10;69.79
74270;BME280;62754;48.252;11.654;2022-09-03T01:00:43;95898.34;;;13.11;70.41
74270;BME280;62754;48.252;11.654;2022-09-03T01:03:31;95886.16;;;13.21;69.54
74270;BME280;62754;48.252;11.654;2022-09-03T01:06:23;95883.22;;;13.16;69.00
74270;BME280;62754;48.252;11.654;2022-09-03T01:09:02;95887.34;;;12.99;69.46
74270;BME280;62754;48.252;11.654;2022-09-03T01:12:04;95885.56;;;13.00;69.85
74270;BME280;62754;48.252;11.654;2022-09-03T01:20:28;95905.84;;;12.95;70.67
74270;BME280;62754;48.252;11.654;2022-09-03T01:28:40;95892.94;;;12.95;70.28
74270;BME280;62754;48.252;11.654;2022-09-03T01:31:27;95901.59;;;12.66;71.09
74270;BME280;62754;48.252;11.654;2022-09-03T01:34:12;95899.03;;;12.66;71.38
74270;BME280;62754;48.252;11.654;2022-09-03T01:39:12;95884.03;;;12.70;71.45
74270;BME280;62754;48.252;11.654;2022-09-03T01:42:14;95892.28;;;12.83;70.94
74270;BME280;62754;48.252;11.654;2022-09-03T01:45:22;95895.56;;;12.85;70.58
74270;BME280;62754;48.252;11.654;2022-09-03T01:48:09;95892.81;;;12.86;70.98
74270;BME280;62754;48.252;11.654;2022-09-03T01:50:49;95911.84;;;12.95;70.88
74270;BME280;62754;48.252;11.654;2022-09-03T01:56:18;95901.97;;;12.71;71.13
74270;BME280;62754;48.252;11.654;2022-09-03T02:01:36;95900.50;;;12.59;71.82
74270;BME280;62754;48.252;11.654;2022-09-03T02:04:14;95901.50;;;12.49;71.92
74270;BME280;62754;48.252;11.654;2022-09-03T02:06:41;95903.94;;;12.40;72.51
74270;BME280;62754;48.252;11.654;2022-09-03T02:09:07;95893.63;;;12.40;72.78
74270;BME280;62754;48.252;11.654;2022-09-03T02:11:33;95890.19;;;12.59;72.29
74270;BME280;62754;48.252;11.654;2022-09-03T02:13:59;95893.84;;;12.66;72.36
74270;BME280;62754;48.252;11.654;2022-09-03T02:16:28;95881.19;;;12.63;71.86
74270;BME280;62754;48.252;11.654;2022-09-03T02:18:59;95883.94;;;12.62;72.37
74270;BME280;62754;48.252;11.654;2022-09-03T02:21:27;95889.63;;;12.65;72.07
74270;BME280;62754;48.252;11.654;2022-09-03T02:23:56;95877.16;;;12.41;73.09
74270;BME280;62754;48.252;11.654;2022-09-03T02:26:23;95876.06;;;12.44;72.87
74270;BME280;62754;48.252;11.654;2022-09-03T02:28:51;95877.56;;;12.47;72.77
74270;BME280;62754;48.252;11.654;2022-09-03T02:31:17;95879.09;;;12.39;73.33
74270;BME280;62754;48.252;11.654;2022-09-03T02:33:45;95889.16;;;12.23;73.58
74270;BME280;62754;48.252;11.654;2022-09-03T02:36:13;95888.50;;;12.12;74.02
74270;BME280;62754;48.252;11.654;2022-09-03T02:38:41;95888.06;;;11.97;74.69
74270;BME280;62754;48.252;11.654;2022-09-03T02:41:07;95891.63;;;11.96;75.13
74270;BME280;62754;48.252;11.654;2022-09-03T02:43:35;95888.91;;;12.07;74.78
74270;BME280;62754;48.252;11.654;2022-09-03T02:46:07;95879.13;;;12.11;74.25
74270;BME280;62754;48.252;11.654;2022-09-03T02:48:34;95890.53;;;12.18;74.27
74270;BME280;62754;48.252;11.654;2022-09-03T02:51:00;95891.34;;;12.09;74.93
74270;BME280;62754;48.252;11.654;2022-09-03T02:53:26;95892.97;;;12.19;74.94
74270;BME280;62754;48.252;11.654;2022-09-03T02:55:52;95892.84;;;12.02;75.10
74270;BME280;62754;48.252;11.654;2022-09-03T02:58:17;95887.13;;;11.98;75.03
74270;BME280;62754;48.252;11.654;2022-09-03T03:00:43;95892.00;;;12.01;75.13
74270;BME280;62754;48.252;11.654;2022-09-03T03:03:09;95889.19;;;12.04;75.03
74270;BME280;62754;48.252;11.654;2022-09-03T03:05:45;95889.84;;;12.06;75.14
74270;BME280;62754;48.252;11.654;2022-09-03T03:08:11;95887.81;;;12.00;75.47
74270;BME280;62754;48.252;11.654;2022-09-03T03:10:37;95880.63;;;12.04;75.33
74270;BME280;62754;48.252;11.654;2022-09-03T03:13:03;95884.00;;;11.94;75.36
74270;BME280;62754;48.252;11.654;2022-09-03T03:15:29;95887.53;;;11.74;76.25
74270;BME280;62754;48.252;11.654;2022-09-03T03:17:55;95890.00;;;11.85;75.69
74270;BME280;62754;48.252;11.654;2022-09-03T03:20:21;95895.28;;;11.84;76.03
74270;BME280;62754;48.252;11.654;2022-09-03T03:22:47;95888.91;;;11.88;76.51
74270;BME280;62754;48.252;11.654;2022-09-03T03:25:13;95888.91;;;11.88;76.15
74270;BME280;62754;48.252;11.654;2022-09-03T03:27:38;95889.72;;;11.88;76.00
74270;BME280;62754;48.252;11.654;2022-09-03T03:30:05;95889.97;;;11.76;75.88
74270;BME280;62754;48.252;11.654;2022-09-03T03:32:30;95893.88;;;11.61;76.76
74270;BME280;62754;48.252;11.654;2022-09-03T03:34:56;95880.19;;;11.70;76.37
74270;BME280;62754;48.252;11.654;2022-09-03T03:37:22;95886.88;;;11.72;76.41
74270;BME280;62754;48.252;11.654;2022-09-03T03:39:48;95883.47;;;11.72;76.75
74270;BME280;62754;48.252;11.654;2022-09-03T03:42:13;95881.41;;;11.75;76.56
74270;BME280;62754;48.252;11.654;2022-09-03T03:44:39;95889.69;;;11.69;76.68
74270;BME280;62754;48.252;11.654;2022-09-03T03:47:05;95895.63;;;11.60;76.59
74270;BME280;62754;48.252;11.654;2022-09-03T03:49:30;95894.31;;;11.75;76.73
74270;BME280;62754;48.252;11.654;2022-09-03T03:51:56;95903.41;;;11.70;76.54
74270;BME280;62754;48.252;11.654;2022-09-03T03:54:22;95904.34;;;11.69;76.56
74270;BME280;62754;48.252;11.654;2022-09-03T03:56:48;95902.03;;;11.66;76.62
74270;BME280;62754;48.252;11.654;2022-09-03T03:59:13;95896.19;;;11.64;76.85
74270;BME280;62754;48.252;11.654;2022-09-03T04:01:39;95888.84;;;11.59;77.06
74270;BME280;62754;48.252;11.654;2022-09-03T04:04:05;95892.63;;;11.55;76.26
74270;BME280;62754;48.252;11.654;2022-09-03T04:06:31;95884.06;;;11.45;76.78
74270;BME280;62754;48.252;11.654;2022-09-03T04:08:56;95888.53;;;11.43;76.70
74270;BME280;62754;48.252;11.654;2022-09-03T04:11:23;95886.94;;;11.42;76.85
74270;BME280;62754;48.252;11.654;2022-09-03T04:13:49;95882.53;;;11.23;77.50
74270;BME280;62754;48.252;11.654;2022-09-03T04:16:18;95878.31;;;11.22;77.63
74270;BME280;62754;48.252;11.654;2022-09-03T04:18:44;95875.84;;;11.11;78.40
74270;BME280;62754;48.252;11.654;2022-09-03T04:21:16;95877.94;;;11.27;78.01
74270;BME280;62754;48.252;11.654;2022-09-03T04:23:44;95880.53;;;11.36;77.72
74270;BME280;62754;48.252;11.654;2022-09-03T04:26:16;95886.78;;;11.34;77.60
74270;BME280;62754;48.252;11.654;2022-09-03T04:28:42;95891.38;;;11.30;77.71
74270;BME280;62754;48.252;11.654;2022-09-03T04:31:10;95889.75;;;11.29;77.86
74270;BME280;62754;48.252;11.654;2022-09-03T04:33:36;95893.38;;;11.17;78.52
74270;BME280;62754;48.252;11.654;2022-09-03T04:36:10;95903.56;;;11.19;78.10
74270;BME280;62754;48.252;11.654;2022-09-03T04:38:38;95897.47;;;11.20;78.51
74270;BME280;62754;48.252;11.654;2022-09-03T04:41:06;95910.38;;;11.29;78.39
74270;BME280;62754;48.252;11.654;2022-09-03T04:43:32;95915.81;;;11.36;78.09
74270;BME280;62754;48.252;11.654;2022-09-03T04:45:59;95914.69;;;11.19;78.08
74270;BME280;62754;48.252;11.654;2022-09-03T04:48:29;95915.91;;;11.25;78.22
74270;BME280;62754;48.252;11.654;2022-09-03T04:51:05;95909.31;;;11.41;77.77
74270;BME280;62754;48.252;11.654;2022-09-03T04:53:35;95912.22;;;11.58;77.44
74270;BME280;62754;48.252;11.654;2022-09-03T04:56:02;95920.28;;;11.74;76.67
74270;BME280;62754;48.252;11.654;2022-09-03T04:58:28;95922.31;;;11.80;76.30
74270;BME280;62754;48.252;11.654;2022-09-03T05:00:54;95923.28;;;11.88;76.11
74270;BME280;62754;48.252;11.654;2022-09-03T05:03:22;95918.50;;;11.93;76.81
74270;BME280;62754;48.252;11.654;2022-09-03T05:05:55;95920.56;;;12.00;76.13
74270;BME280;62754;48.252;11.654;2022-09-03T05:08:21;95914.72;;;11.98;75.22
74270;BME280;62754;48.252;11.654;2022-09-03T05:10:47;95936.88;;;12.19;75.14
74270;BME280;62754;48.252;11.654;2022-09-03T05:13:13;95935.66;;;12.33;74.51
74270;BME280;62754;48.252;11.654;2022-09-03T05:15:39;95940.13;;;12.40;73.76
74270;BME280;62754;48.252;11.654;2022-09-03T05:18:05;95940.50;;;12.55;73.55
74270;BME280;62754;48.252;11.654;2022-09-03T05:20:31;95937.38;;;12.61;73.75
74270;BME280;62754;48.252;11.654;2022-09-03T05:23:00;95933.03;;;12.62;73.42
74270;BME280;62754;48.252;11.654;2022-09-03T05:25:26;95945.91;;;12.81;72.68
74270;BME280;62754;48.252;11.654;2022-09-03T05:27:52;95949.88;;;12.75;72.83
74270;BME280;62754;48.252;11.654;2022-09-03T05:30:18;95948.34;;;12.82;73.29
74270;BME280;62754;48.252;11.654;2022-09-03T05:32:43;95957.63;;;12.85;72.98
74270;BME280;62754;48.252;11.654;2022-09-03T05:35:09;95952.19;;;12.69;73.27
74270;BME280;62754;48.252;11.654;2022-09-03T05:37:35;95949.88;;;12.75;73.53
74270;BME280;62754;48.252;11.654;2022-09-03T05:40:01;95957.16;;;12.99;72.04
74270;BME280;62754;48.252;11.654;2022-09-03T05:42:27;95962.44;;;13.07;72.56
74270;BME280;62754;48.252;11.654;2022-09-03T05:44:53;95969.50;;;13.24;72.08
74270;BME280;62754;48.252;11.654;2022-09-03T05:47:19;95968.81;;;13.32;71.29
74270;BME280;62754;48.252;11.654;2022-09-03T05:49:44;95980.31;;;13.47;71.71
74270;BME280;62754;48.252;11.654;2022-09-03T05:52:10;95977.66;;;13.57;70.56
74270;BME280;62754;48.252;11.654;2022-09-03T05:54:36;95973.69;;;13.62;70.76
74270;BME280;62754;48.252;11.654;2022-09-03T05:57:02;95974.53;;;13.63;70.08
74270;BME280;62754;48.252;11.654;2022-09-03T05:59:28;95972.56;;;13.74;70.28
74270;BME280;62754;48.252;11.654;2022-09-03T06:01:53;95973.19;;;13.76;69.92
74270;BME280;62754;48.252;11.654;2022-09-03T06:04:19;95975.50;;;13.79;70.40
74270;BME280;62754;48.252;11.654;2022-09-03T06:06:46;95969.38;;;13.98;70.07
74270;BME280;62754;48.252;11.654;2022-09-03T06:09:18;95971.69;;;14.19;69.16
74270;BME280;62754;48.252;11.654;2022-09-03T06:11:44;95966.94;;;14.14;69.24
74270;BME280;62754;48.252;11.654;2022-09-03T06:14:13;95972.88;;;14.07;69.09
74270;BME280;62754;48.252;11.654;2022-09-03T06:16:41;95974.22;;;14.11;68.74
74270;BME280;62754;48.252;11.654;2022-09-03T06:19:08;95975.53;;;13.97;69.92
74270;BME280;62754;48.252;11.654;2022-09-03T06:21:35;95961.34;;;14.01;69.77
74270;BME280;62754;48.252;11.654;2022-09-03T06:24:02;95966.34;;;14.03;70.74
74270;BME280;62754;48.252;11.654;2022-09-03T06:26:28;95959.41;;;14.03;70.34
74270;BME280;62754;48.252;11.654;2022-09-03T06:28:54;95962.44;;;13.99;70.78
74270;BME280;62754;48.252;11.654;2022-09-03T06:31:20;95969.63;;;14.05;71.00
74270;BME280;62754;48.252;11.654;2022-09-03T06:33:46;95966.88;;;14.06;69.14
74270;BME280;62754;48.252;11.654;2022-09-03T06:36:14;95971.69;;;14.01;70.31
74270;BME280;62754;48.252;11.654;2022-09-03T06:38:40;95981.91;;;14.03;70.50
74270;BME280;62754;48.252;11.654;2022-09-03T06:41:09;95981.06;;;14.02;70.66
74270;BME280;62754;48.252;11.654;2022-09-03T06:43:38;95980.19;;;13.94;71.55
74270;BME280;62754;48.252;11.654;2022-09-03T06:46:06;95987.81;;;13.95;71.42
74270;BME280;62754;48.252;11.654;2022-09-03T06:48:34;95994.19;;;14.18;71.10
74270;BME280;62754;48.252;11.654;2022-09-03T06:51:14;95991.66;;;14.36;69.25
74270;BME280;62754;48.252;11.654;2022-09-03T06:53:42;95984.63;;;14.46;69.52
74270;BME280;62754;48.252;11.654;2022-09-03T06:56:14;95981.03;;;14.29;68.78
74270;BME280;62754;48.252;11.654;2022-09-03T06:58:42;95993.00;;;14.40;68.21
74270;BME280;62754;48.252;11.654;2022-09-03T07:01:19;95990.41;;;14.40;69.06
74270;BME280;62754;48.252;11.654;2022-09-03T07:03:46;96000.69;;;14.50;69.03
74270;BME280;62754;48.252;11.654;2022-09-03T07:06:15;96005.00;;;14.59;67.92
74270;BME280;62754;48.252;11.654;2022-09-03T07:08:42;96009.44;;;14.66;67.90
74270;BME280;62754;48.252;11.654;2022-09-03T07:11:11;95998.69;;;14.61;67.14
74270;BME280;62754;48.252;11.654;2022-09-03T07:13:42;96000.97;;;14.64;68.12
74270;BME280;62754;48.252;11.654;2022-09-03T07:16:13;96005.81;;;14.59;68.69
74270;BME280;62754;48.252;11.654;2022-09-03T07:18:40;95999.63;;;14.60;67.80
74270;BME280;62754;48.252;11.654;2022-09-03T07:21:11;95999.72;;;14.51;68.54
74270;BME280;62754;48.252;11.654;2022-09-03T07:23:38;96004.09;;;14.50;68.85
74270;BME280;62754;48.252;11.654;2022-09-03T07:26:06;96004.91;;;14.51;68.85
74270;BME280;62754;48.252;11.654;2022-09-03T07:28:34;95992.41;;;14.46;68.71
74270;BME280;62754;48.252;11.654;2022-09-03T07:31:09;96003.00;;;14.25;69.77
74270;BME280;62754;48.252;11.654;2022-09-03T07:33:35;96005.97;;;14.30;70.07
74270;BME280;62754;48.252;11.654;2022-09-03T07:36:05;96015.94;;;14.35;69.89
74270;BME280;62754;48.252;11.654;2022-09-03T07:38:35;96017.81;;;14.33;70.17
74270;BME280;62754;48.252;11.654;2022-09-03T07:41:03;96017.38;;;14.47;70.18
74270;BME280;62754;48.252;11.654;2022-09-03T07:43:34;96019.78;;;14.49;70.23
74270;BME280;62754;48.252;11.654;2022-09-03T07:46:00;96011.78;;;14.60;69.57
74270;BME280;62754;48.252;11.654;2022-09-03T07:48:26;96011.00;;;14.59;70.00
74270;BME280;62754;48.252;11.654;2022-09-03T07:50:57;96011.91;;;14.76;70.14
74270;BME280;62754;48.252;11.654;2022-09-03T07:53:23;96015.16;;;14.96;70.16
74270;BME280;62754;48.252;11.654;2022-09-03T07:55:48;96017.09;;;14.76;71.18
74270;BME280;62754;48.252;11.654;2022-09-03T07:58:14;96028.97;;;14.78;71.58
74270;BME280;62754;48.252;11.654;2022-09-03T08:00:40;96025.03;;;14.92;69.93
74270;BME280;62754;48.252;11.654;2022-09-03T08:03:06;96017.66;;;15.05;69.88
74270;BME280;62754;48.252;11.654;2022-09-03T08:05:32;96013.56;;;15.03;70.59
74270;BME280;62754;48.252;11.654;2022-09-03T08:08:04;96016.09;;;14.95;70.97
74270;BME280;62754;48.252;11.654;2022-09-03T08:10:33;96011.34;;;15.34;69.19
74270;BME280;62754;48.252;11.654;2022-09-03T08:12:59;96020.00;;;15.42;69.02
74270;BME280;62754;48.252;11.654;2022-09-03T08:15:25;96018.16;;;15.52;67.78
74270;BME280;62754;48.252;11.654;2022-09-03T08:17:52;96018.56;;;15.48;69.19
74270;BME280;62754;48.252;11.654;2022-09-03T08:20:18;96021.28;;;15.72;67.86
74270;BME280;62754;48.252;11.654;2022-09-03T08:22:44;96021.00;;;15.75;69.65
74270;BME280;62754;48.252;11.654;2022-09-03T08:25:09;96018.31;;;15.93;68.26
74270;BME280;62754;48.252;11.654;2022-09-03T08:27:35;96017.50;;;16.00;67.73
74270;BME280;62754;48.252;11.654;2022-09-03T08:30:01;96026.56;;;15.88;67.00
74270;BME280;62754;48.252;11.654;2022-09-03T08:32:27;96022.25;;;16.05;66.49
74270;BME280;62754;48.252;11.654;2022-09-03T08:34:52;96017.88;;;16.05;66.67
74270;BME280;62754;48.252;11.654;2022-09-03T08:37:18;96027.13;;;16.08;66.08
74270;BME280;62754;48.252;11.654;2022-09-03T08:39:44;96021.91;;;16.08;65.98
74270;BME280;62754;48.252;11.654;2022-09-03T08:42:32;96022.78;;;16.25;65.52
74270;BME280;62754;48.252;11.654;2022-09-03T08:45:05;96032.03;;;16.27;66.27
74270;BME280;62754;48.252;11.654;2022-09-03T08:47:37;96032.72;;;16.29;65.17
74270;BME280;62754;48.252;11.654;2022-09-03T08:50:26;96030.44;;;16.42;66.03
74270;BME280;62754;48.252;11.654;2022-09-03T08:53:16;96032.47;;;16.56;65.81
74270;BME280;62754;48.252;11.654;2022-09-03T08:55:57;96027.59;;;16.70;65.18
74270;BME280;62754;48.252;11.654;2022-09-03T08:58:26;96020.75;;;16.93;63.89
74270;BME280;62754;48.252;11.654;2022-09-03T09:01:05;96015.88;;;17.06;63.73
74270;BME280;62754;48.252;11.654;2022-09-03T09:14:04;96018.03;;;18.13;62.05
74270;BME280;62754;48.252;11.654;2022-09-03T09:16:44;96019.66;;;18.14;61.37
74270;BME280;62754;48.252;11.654;2022-09-03T09:25:05;96013.16;;;18.09;62.13
74270;BME280;62754;48.252;11.654;2022-09-03T09:27:31;96004.31;;;18.19;61.86
74270;BME280;62754;48.252;11.654;2022-09-03T09:29:57;96010.22;;;18.35;62.03
74270;BME280;62754;48.252;11.654;2022-09-03T09:32:23;96000.50;;;18.60;62.22
74270;BME280;62754;48.252;11.654;2022-09-03T09:34:49;95998.38;;;18.55;62.59
74270;BME280;62754;48.252;11.654;2022-09-03T09:37:15;95995.25;;;18.83;60.81
74270;BME280;62754;48.252;11.654;2022-09-03T09:39:56;95993.72;;;18.88;61.64
74270;BME280;62754;48.252;11.654;2022-09-03T09:42:23;95991.66;;;18.84;60.71
74270;BME280;62754;48.252;11.654;2022-09-03T09:44:49;95986.25;;;19.23;60.93
74270;BME280;62754;48.252;11.654;2022-09-03T09:47:22;95988.72;;;19.16;59.94
74270;BME280;62754;48.252;11.654;2022-09-03T09:52:15;95998.06;;;19.63;59.17
74270;BME280;62754;48.252;11.654;2022-09-03T09:57:26;95998.91;;;19.63;60.57
74270;BME280;62754;48.252;11.654;2022-09-03T10:00:07;95990.56;;;19.89;59.52
74270;BME280;62754;48.252;11.654;2022-09-03T10:02:34;96001.94;;;19.96;59.63
74270;BME280;62754;48.252;11.654;2022-09-03T10:05:15;95988.97;;;19.88;59.41
74270;BME280;62754;48.252;11.654;2022-09-03T10:08:03;95991.50;;;20.17;57.45
74270;BME280;62754;48.252;11.654;2022-09-03T10:10:32;95995.91;;;20.46;57.90
74270;BME280;62754;48.252;11.654;2022-09-03T10:13:05;95997.59;;;20.39;57.28
74270;BME280;62754;48.252;11.654;2022-09-03T10:15:43;96001.22;;;21.23;55.97
74270;BME280;62754;48.252;11.654;2022-09-03T10:21:00;95996.94;;;21.15;57.29
74270;BME280;62754;48.252;11.654;2022-09-03T10:23:31;95997.56;;;20.96;55.67
74270;BME280;62754;48.252;11.654;2022-09-03T10:26:08;95994.25;;;20.87;55.53
74270;BME280;62754;48.252;11.654;2022-09-03T10:28:37;95993.09;;;21.11;56.67
74270;BME280;62754;48.252;11.654;2022-09-03T10:34:05;95988.84;;;21.79;54.76
74270;BME280;62754;48.252;11.654;2022-09-03T10:37:13;95988.50;;;21.89;53.75
74270;BME280;62754;48.252;11.654;2022-09-03T10:45:01;95991.91;;;22.23;53.88
74270;BME280;62754;48.252;11.654;2022-09-03T10:47:42;95984.59;;;22.12;52.06
74270;BME280;62754;48.252;11.654;2022-09-03T10:50:13;95990.72;;;21.85;53.37
74270;BME280;62754;48.252;11.654;2022-09-03T10:55:55;95990.31;;;21.88;53.12
74270;BME280;62754;48.252;11.654;2022-09-03T10:58:55;95984.63;;;22.19;52.12
74270;BME280;62754;48.252;11.654;2022-09-03T11:01:33;95988.25;;;22.24;52.26
74270;BME280;62754;48.252;11.654;2022-09-03T11:04:08;95973.41;;;22.64;51.42
74270;BME280;62754;48.252;11.654;2022-09-03T11:06:56;95976.28;;;22.76;49.42
74270;BME280;62754;48.252;11.654;2022-09-03T11:09:45;95963.09;;;23.48;48.54
74270;BME280;62754;48.252;11.654;2022-09-03T11:12:32;95973.00;;;23.66;51.03
74270;BME280;62754;48.252;11.654;2022-09-03T11:15:03;95970.59;;;23.38;49.71
74270;BME280;62754;48.252;11.654;2022-09-03T11:17:57;95971.81;;;23.36;52.16
74270;BME280;62754;48.252;11.654;2022-09-03T11:20:23;95975.44;;;23.41;51.25
74270;BME280;62754;48.252;11.654;2022-09-03T11:22:53;95979.50;;;23.31;50.25
74270;BME280;62754;48.252;11.654;2022-09-03T11:25:21;95957.66;;;23.30;50.54
74270;BME280;62754;48.252;11.654;2022-09-03T11:30:39;95950.94;;;24.11;48.39
74270;BME280;62754;48.252;11.654;2022-09-03T11:33:12;95951.59;;;23.23;50.07
74270;BME280;62754;48.252;11.654;2022-09-03T11:35:39;95944.97;;;23.01;50.79
74270;BME280;62754;48.252;11.654;2022-09-03T11:38:20;95953.22;;;22.98;52.32
74270;BME280;62754;48.252;11.654;2022-09-03T11:40:59;95946.38;;;22.70;53.15
74270;BME280;62754;48.252;11.654;2022-09-03T11:43:30;95943.75;;;22.84;50.57
74270;BME280;62754;48.252;11.654;2022-09-03T11:46:31;95952.84;;;22.74;52.51
74270;BME280;62754;48.252;11.654;2022-09-03T11:49:09;95955.81;;;22.65;54.22
74270;BME280;62754;48.252;11.654;2022-09-03T11:51:37;95949.16;;;22.62;53.32
74270;BME280;62754;48.252;11.654;2022-09-03T11:56:41;95952.25;;;25.21;45.38
74270;BME280;62754;48.252;11.654;2022-09-03T11:59:17;95952.59;;;26.04;42.51
74270;BME280;62754;48.252;11.654;2022-09-03T12:02:01;95945.75;;;26.33;42.20
74270;BME280;62754;48.252;11.654;2022-09-03T12:10:33;95923.19;;;27.60;39.31
74270;BME280;62754;48.252;11.654;2022-09-03T12:19:20;95914.09;;;27.56;39.88
74270;BME280;62754;48.252;11.654;2022-09-03T12:21:50;95925.81;;;29.18;36.30
74270;BME280;62754;48.252;11.654;2022-09-03T12:24:16;95935.59;;;29.51;35.48
74270;BME280;62754;48.252;11.654;2022-09-03T12:26:43;95931.28;;;29.11;36.75
74270;BME280;62754;48.252;11.654;2022-09-03T12:29:26;95925.09;;;28.72;36.04
74270;BME280;62754;48.252;11.654;2022-09-03T12:31:52;95918.34;;;29.15;36.46
74270;BME280;62754;48.252;11.654;2022-09-03T12:34:19;95923.16;;;29.73;34.79
74270;BME280;62754;48.252;11.654;2022-09-03T12:36:45;95911.56;;;30.49;32.62
74270;BME280;62754;48.252;11.654;2022-09-03T12:39:13;95909.75;;;30.33;33.19
74270;BME280;62754;48.252;11.654;2022-09-03T12:44:37;95917.00;;;30.96;32.49
74270;BME280;62754;48.252;11.654;2022-09-03T12:47:12;95916.72;;;30.93;31.96
74270;BME280;62754;48.252;11.654;2022-09-03T12:49:43;95913.28;;;31.76;31.19
74270;BME280;62754;48.252;11.654;2022-09-03T12:54:56;95911.19;;;31.83;30.19
74270;BME280;62754;48.252;11.654;2022-09-03T12:57:29;95909.53;;;31.72;30.62
74270;BME280;62754;48.252;11.654;2022-09-03T13:00:02;95899.72;;;32.85;28.93
74270;BME280;62754;48.252;11.654;2022-09-03T13:02:43;95906.09;;;32.84;29.00
74270;BME280;62754;48.252;11.654;2022-09-03T13:05:16;95903.78;;;32.00;30.34
74270;BME280;62754;48.252;11.654;2022-09-03T13:07:47;95898.13;;;31.35;30.33
74270;BME280;62754;48.252;11.654;2022-09-03T13:10:24;95894.50;;;31.51;30.15
74270;BME280;62754;48.252;11.654;2022-09-03T13:12:51;95894.44;;;31.93;30.38
74270;BME280;62754;48.252;11.654;2022-09-03T13:15:23;95896.44;;;32.43;29.69
74270;BME280;62754;48.252;11.654;2022-09-03T13:31:54;95895.91;;;32.56;28.39
74270;BME280;62754;48.252;11.654;2022-09-03T13:34:29;95894.69;;;31.39;29.83
74270;BME280;62754;48.252;11.654;2022-09-03T13:40:15;95907.41;;;27.65;36.47
74270;BME280;62754;48.252;11.654;2022-09-03T13:42:59;95903.50;;;26.86;38.31
74270;BME280;62754;48.252;11.654;2022-09-03T13:45:40;95905.56;;;25.83;40.56
74270;BME280;62754;48.252;11.654;2022-09-03T13:48:44;95915.06;;;25.47;42.36
74270;BME280;62754;48.252;11.654;2022-09-03T13:53:43;95904.28;;;24.88;43.87
74270;BME280;62754;48.252;11.654;2022-09-03T13:58:55;95902.09;;;24.22;45.05
74270;BME280;62754;48.252;11.654;2022-09-03T14:01:44;95912.78;;;23.83;46.67
74270;BME280;62754;48.252;11.654;2022-09-03T14:04:21;95914.00;;;23.87;47.11
74270;BME280;62754;48.252;11.654;2022-09-03T14:07:03;95902.97;;;23.65;48.07
74270;BME280;62754;48.252;11.654;2022-09-03T14:15:17;95933.22;;;22.97;51.20
74270;BME280;62754;48.252;11.654;2022-09-03T14:17:51;95931.84;;;22.74;50.30
74270;BME280;62754;48.252;11.654;2022-09-03T14:20:35;95929.38;;;22.66;50.78
74270;BME280;62754;48.252;11.654;2022-09-03T14:23:25;95925.09;;;22.46;51.51
74270;BME280;62754;48.252;11.654;2022-09-03T14:25:59;95923.28;;;22.40;50.92
74270;BME280;62754;48.252;11.654;2022-09-03T14:28:57;95914.56;;;22.26;51.26
74270;BME280;62754;48.252;11.654;2022-09-03T14:37:43;95942.88;;;21.90;52.54
74270;BME280;62754;48.252;11.654;2022-09-03T14:40:46;95948.50;;;21.80;52.66
74270;BME280;62754;48.252;11.654;2022-09-03T15:07:58;96041.38;;;18.06;79.88
74270;BME280;62754;48.252;11.654;2022-09-03T15:12:59;96050.53;;;17.94;80.58
74270;BME280;62754;48.252;11.654;2022-09-03T15:20:51;96099.34;;;17.53;83.20
74270;BME280;62754;48.252;11.654;2022-09-03T15:36:54;95969.31;;;17.11;84.63
74270;BME280;62754;48.252;11.654;2022-09-03T15:39:29;95972.13;;;17.01;85.25
74270;BME280;62754;48.252;11.654;2022-09-03T15:42:09;95985.47;;;16.98;85.73
74270;BME280;62754;48.252;11.654;2022-09-03T15:44:43;95994.09;;;16.83;86.72
74270;BME280;62754;48.252;11.654;2022-09-03T15:47:13;96000.28;;;16.65;86.36
74270;BME280;62754;48.252;11.654;2022-09-03T15:50:15;96007.06;;;16.50;87.06
74270;BME280;62754;48.252;11.654;2022-09-03T15:55:42;96033.75;;;16.60;88.09
74270;BME280;62754;48.252;11.654;2022-09-03T15:58:33;96036.34;;;16.60;87.30
74270;BME280;62754;48.252;11.654;2022-09-03T16:01:05;96034.44;;;16.79;86.16
74270;BME280;62754;48.252;11.654;2022-09-03T16:04:02;96025.81;;;16.70;86.40
74270;BME280;62754;48.252;11.654;2022-09-03T16:09:17;96029.38;;;16.77;85.93
74270;BME280;62754;48.252;11.654;2022-09-03T16:12:13;96028.09;;;16.89;85.57
74270;BME280;62754;48.252;11.654;2022-09-03T16:14:50;96028.56;;;17.01;84.51